createdAt,value
2018-02-06T00:00:08.213Z,13.77
2018-02-06T00:00:42.076Z,13.05
2018-02-06T00:01:15.965Z,12.15
2018-02-06T00:01:49.960Z,11.93
2018-02-06T00:02:23.901Z,11.80
2018-02-06T00:02:57.794Z,11.68
2018-02-06T00:03:31.694Z,11.40
2018-02-06T00:04:05.709Z,11.80
2018-02-06T00:04:39.620Z,12.02
2018-02-06T00:05:13.710Z,11.15
2018-02-06T00:05:47.594Z,12.27
2018-02-06T00:06:21.488Z,11.00
2018-02-06T00:06:55.432Z,12.40
2018-02-06T00:07:29.325Z,12.25
2018-02-06T00:08:03.220Z,11.68
2018-02-06T00:08:37.148Z,12.30
2018-02-06T00:09:11.001Z,11.60
2018-02-06T00:09:45.146Z,12.18
2018-02-06T00:10:19.387Z,12.85
2018-02-06T00:10:53.259Z,11.07
2018-02-06T00:11:27.198Z,11.35
2018-02-06T00:12:01.139Z,11.12
2018-02-06T00:12:35.022Z,11.23
2018-02-06T00:13:08.925Z,12.23
2018-02-06T00:13:43.028Z,10.27
2018-02-06T00:14:16.973Z,12.20
2018-02-06T00:14:50.872Z,11.60
2018-02-06T00:15:24.885Z,11.75
2018-02-06T00:15:58.786Z,12.00
2018-02-06T00:16:32.717Z,11.35
2018-02-06T00:17:06.612Z,12.73
2018-02-06T00:17:40.469Z,12.40
2018-02-06T00:18:14.324Z,11.27
2018-02-06T00:18:48.183Z,11.45
2018-02-06T00:19:22.107Z,12.18
2018-02-06T00:19:56.081Z,11.50
2018-02-06T00:20:30.089Z,11.80
2018-02-06T00:21:04.084Z,11.40
2018-02-06T00:21:37.979Z,12.02
2018-02-06T00:22:14.589Z,11.70
2018-02-06T00:22:50.898Z,12.15
2018-02-06T00:23:24.776Z,12.50
2018-02-06T00:23:58.650Z,11.27
2018-02-06T00:24:32.546Z,12.37
2018-02-06T00:25:06.473Z,11.25
2018-02-06T00:25:40.365Z,12.27
2018-02-06T00:26:14.245Z,12.63
2018-02-06T00:26:48.122Z,11.98
2018-02-06T00:27:22.083Z,11.10
2018-02-06T00:27:56.134Z,11.63
2018-02-06T00:28:30.014Z,12.23
2018-02-06T00:29:03.885Z,11.10
2018-02-06T00:29:37.800Z,12.27
2018-02-06T00:30:11.771Z,12.68
2018-02-06T00:30:45.696Z,10.75
2018-02-06T00:31:19.797Z,11.63
2018-02-06T00:31:53.732Z,13.20
2018-02-06T00:32:27.650Z,10.77
2018-02-06T00:33:01.553Z,11.90
2018-02-06T00:33:35.475Z,10.73
2018-02-06T00:34:09.402Z,10.52
2018-02-06T00:34:43.489Z,12.02
2018-02-06T00:35:17.361Z,10.25
2018-02-06T00:35:51.259Z,11.12
2018-02-06T00:36:25.172Z,11.25
2018-02-06T00:36:59.061Z,11.93
2018-02-06T00:37:33.042Z,11.15
2018-02-06T00:38:06.921Z,12.23
2018-02-06T00:38:40.792Z,10.68
2018-02-06T00:39:14.679Z,10.90
2018-02-06T00:39:48.582Z,11.50
2018-02-06T00:40:22.485Z,11.18
2018-02-06T00:40:56.458Z,11.12
2018-02-06T00:41:30.322Z,11.05
2018-02-06T00:42:04.200Z,10.90
2018-02-06T00:42:38.092Z,11.35
2018-02-06T00:43:11.989Z,9.98
2018-02-06T00:43:45.919Z,11.43
2018-02-06T00:44:19.788Z,12.93
2018-02-06T00:44:53.670Z,12.55
2018-02-06T00:45:27.574Z,12.60
2018-02-06T00:46:01.462Z,11.25
2018-02-06T00:46:35.370Z,13.05
2018-02-06T00:47:09.372Z,11.68
2018-02-06T00:47:43.265Z,13.38
2018-02-06T00:48:17.247Z,12.43
2018-02-06T00:48:51.188Z,12.10
2018-02-06T00:49:25.235Z,12.45
2018-02-06T00:49:59.171Z,13.15
2018-02-06T00:50:33.040Z,12.88
2018-02-06T00:51:06.921Z,13.30
2018-02-06T00:51:40.832Z,12.37
2018-02-06T00:52:14.885Z,13.23
2018-02-06T00:52:49.780Z,13.60
2018-02-06T00:53:23.690Z,13.82
2018-02-06T00:53:57.726Z,14.23
2018-02-06T00:54:31.776Z,14.15
2018-02-06T00:55:05.718Z,14.50
2018-02-06T00:55:39.717Z,14.95
2018-02-06T00:56:13.574Z,13.48
2018-02-06T00:56:47.545Z,13.95
2018-02-06T00:57:21.408Z,13.48
2018-02-06T00:57:55.427Z,13.55
2018-02-06T00:58:29.350Z,15.10
2018-02-06T00:59:03.233Z,15.88
2018-02-06T00:59:37.264Z,14.35
2018-02-06T01:00:11.177Z,13.88
2018-02-06T01:00:45.036Z,13.62
2018-02-06T01:01:19.113Z,14.40
2018-02-06T01:01:52.987Z,13.27
2018-02-06T01:02:26.965Z,13.05
2018-02-06T01:03:00.859Z,13.55
2018-02-06T01:03:34.961Z,14.20
2018-02-06T01:04:08.981Z,13.20
2018-02-06T01:04:42.865Z,13.30
2018-02-06T01:05:16.954Z,12.75
2018-02-06T01:05:50.843Z,14.65
2018-02-06T01:06:24.738Z,13.65
2018-02-06T01:06:58.688Z,14.77
2018-02-06T01:07:32.572Z,16.08
2018-02-06T01:08:06.488Z,15.23
2018-02-06T01:08:40.565Z,14.77
2018-02-06T01:09:14.444Z,13.25
2018-02-06T01:09:48.539Z,14.07
2018-02-06T01:10:22.540Z,12.85
2018-02-06T01:10:56.411Z,13.52
2018-02-06T01:11:30.435Z,12.70
2018-02-06T01:12:04.383Z,13.32
2018-02-06T01:12:38.409Z,14.30
2018-02-06T01:13:12.409Z,11.93
2018-02-06T01:13:46.316Z,13.25
2018-02-06T01:14:20.192Z,11.60
2018-02-06T01:14:54.201Z,11.68
2018-02-06T01:15:28.209Z,13.20
2018-02-06T01:16:02.190Z,12.02
2018-02-06T01:16:36.195Z,13.05
2018-02-06T01:17:10.196Z,13.55
2018-02-06T01:17:44.141Z,12.52
2018-02-06T01:18:18.034Z,13.07
2018-02-06T01:18:51.941Z,12.37
2018-02-06T01:19:25.808Z,12.00
2018-02-06T01:19:59.870Z,13.35
2018-02-06T01:20:33.863Z,13.62
2018-02-06T01:21:07.911Z,12.63
2018-02-06T01:21:42.270Z,12.32
2018-02-06T01:22:16.154Z,13.57
2018-02-06T01:22:50.008Z,12.80
2018-02-06T01:23:23.893Z,12.30
2018-02-06T01:23:57.903Z,11.80
2018-02-06T01:24:31.772Z,11.05
2018-02-06T01:25:05.642Z,11.45
2018-02-06T01:25:39.637Z,11.25
2018-02-06T01:26:13.531Z,11.35
2018-02-06T01:26:47.452Z,11.20
2018-02-06T01:27:21.376Z,12.57
2018-02-06T01:27:55.256Z,12.23
2018-02-06T01:28:29.172Z,12.23
2018-02-06T01:29:03.046Z,12.35
2018-02-06T01:29:36.947Z,10.65
2018-02-06T01:30:10.832Z,12.18
2018-02-06T01:30:44.709Z,11.15
2018-02-06T01:31:18.762Z,12.25
2018-02-06T01:31:52.829Z,11.35
2018-02-06T01:32:26.682Z,10.80
2018-02-06T01:33:00.559Z,11.50
2018-02-06T01:33:34.485Z,12.15
2018-02-06T01:34:08.369Z,11.48
2018-02-06T01:34:42.258Z,11.45
2018-02-06T01:35:16.129Z,10.95
2018-02-06T01:35:50.068Z,12.32
2018-02-06T01:36:24.090Z,12.18
2018-02-06T01:36:57.974Z,11.93
2018-02-06T01:37:32.061Z,12.80
2018-02-06T01:38:05.988Z,11.93
2018-02-06T01:38:39.869Z,11.65
2018-02-06T01:39:13.724Z,10.90
2018-02-06T01:39:47.665Z,11.50
2018-02-06T01:40:21.678Z,12.25
2018-02-06T01:40:55.549Z,11.60
2018-02-06T01:41:29.420Z,11.27
2018-02-06T01:42:03.312Z,10.10
2018-02-06T01:42:37.328Z,11.10
2018-02-06T01:43:11.190Z,10.93
2018-02-06T01:43:45.057Z,11.00
2018-02-06T01:44:18.976Z,11.12
2018-02-06T01:44:52.862Z,11.70
2018-02-06T01:45:26.774Z,11.07
2018-02-06T01:46:00.664Z,12.18
2018-02-06T01:46:34.551Z,11.12
2018-02-06T01:47:08.443Z,12.23
2018-02-06T01:47:42.317Z,11.48
2018-02-06T01:48:16.271Z,10.90
2018-02-06T01:48:50.162Z,11.20
2018-02-06T01:49:24.071Z,11.77
2018-02-06T01:50:03.843Z,11.35
2018-02-06T01:50:37.797Z,10.07
2018-02-06T01:51:11.677Z,11.98
2018-02-06T01:51:45.681Z,13.05
2018-02-06T01:52:19.545Z,12.02
2018-02-06T01:52:53.397Z,12.13
2018-02-06T01:53:27.277Z,11.27
2018-02-06T01:54:01.188Z,11.55
2018-02-06T01:54:35.059Z,11.93
2018-02-06T01:55:09.293Z,11.05
2018-02-06T01:55:43.156Z,11.32
2018-02-06T01:56:17.012Z,10.82
2018-02-06T01:56:51.079Z,11.55
2018-02-06T01:57:24.938Z,11.50
2018-02-06T01:57:58.983Z,10.50
2018-02-06T01:58:32.882Z,10.30
2018-02-06T01:59:06.776Z,11.55
2018-02-06T01:59:40.890Z,11.27
2018-02-06T02:00:14.821Z,10.50
2018-02-06T02:00:48.704Z,11.18
2018-02-06T02:01:22.572Z,12.27
2018-02-06T02:01:56.467Z,10.90
2018-02-06T02:02:30.336Z,9.65
2018-02-06T02:03:04.526Z,10.80
2018-02-06T02:03:38.392Z,10.65
2018-02-06T02:04:12.287Z,11.23
2018-02-06T02:04:46.326Z,11.40
2018-02-06T02:05:20.197Z,11.52
2018-02-06T02:05:54.066Z,11.38
2018-02-06T02:06:27.929Z,11.43
2018-02-06T02:07:01.814Z,11.15
2018-02-06T02:07:35.701Z,11.40
2018-02-06T02:08:09.702Z,11.57
2018-02-06T02:08:43.593Z,10.82
2018-02-06T02:09:17.482Z,10.95
2018-02-06T02:09:51.581Z,11.43
2018-02-06T02:10:25.444Z,10.60
2018-02-06T02:10:59.497Z,10.93
2018-02-06T02:11:33.374Z,10.68
2018-02-06T02:12:07.261Z,10.05
2018-02-06T02:12:41.145Z,10.73
2018-02-06T02:13:15.273Z,11.25
2018-02-06T02:13:49.142Z,11.27
2018-02-06T02:14:23.349Z,10.02
2018-02-06T02:14:57.565Z,11.60
2018-02-06T02:15:31.429Z,11.23
2018-02-06T02:16:05.308Z,10.20
2018-02-06T02:16:39.181Z,10.30
2018-02-06T02:17:13.144Z,11.15
2018-02-06T02:17:47.027Z,11.57
2018-02-06T02:18:20.926Z,12.43
2018-02-06T02:18:54.832Z,11.02
2018-02-06T02:19:28.778Z,10.50
2018-02-06T02:20:02.752Z,10.98
2018-02-06T02:20:36.615Z,10.93
2018-02-06T02:21:10.498Z,10.55
2018-02-06T02:21:44.363Z,10.50
2018-02-06T02:22:18.212Z,9.57
2018-02-06T02:22:52.065Z,10.35
2018-02-06T02:23:25.932Z,10.60
2018-02-06T02:23:59.793Z,10.52
2018-02-06T02:24:33.686Z,10.60
2018-02-06T02:25:07.569Z,10.95
2018-02-06T02:25:41.450Z,11.35
2018-02-06T02:26:15.353Z,10.95
2018-02-06T02:26:49.350Z,10.68
2018-02-06T02:27:23.241Z,10.90
2018-02-06T02:27:57.129Z,11.43
2018-02-06T02:28:31.133Z,11.32
2018-02-06T02:29:05.020Z,11.43
2018-02-06T02:29:38.915Z,12.27
2018-02-06T02:30:12.833Z,11.80
2018-02-06T02:30:46.693Z,11.20
2018-02-06T02:31:20.730Z,11.73
2018-02-06T02:31:54.601Z,11.55
2018-02-06T02:32:28.493Z,10.63
2018-02-06T02:33:02.348Z,10.80
2018-02-06T02:33:36.213Z,11.27
2018-02-06T02:34:10.187Z,11.60
2018-02-06T02:34:44.277Z,10.60
2018-02-06T02:35:18.147Z,10.68
2018-02-06T02:35:52.013Z,10.18
2018-02-06T02:36:26.187Z,11.27
2018-02-06T02:37:00.086Z,10.52
2018-02-06T02:37:34.189Z,10.82
2018-02-06T02:38:08.172Z,11.05
2018-02-06T02:38:42.173Z,11.45
2018-02-06T02:39:16.036Z,11.65
2018-02-06T02:39:49.958Z,10.48
2018-02-06T02:40:23.866Z,11.05
2018-02-06T02:40:58.556Z,11.23
2018-02-06T02:41:32.409Z,10.02
2018-02-06T04:38:33.303Z,11.40
2018-02-06T04:39:07.173Z,11.80
2018-02-06T04:39:41.034Z,11.43
2018-02-06T04:40:15.226Z,10.40
2018-02-06T04:40:49.103Z,10.98
2018-02-06T04:41:22.974Z,10.70
2018-02-06T04:41:56.979Z,10.40
2018-02-06T04:42:30.824Z,10.80
2018-02-06T04:43:04.695Z,11.95
2018-02-06T04:43:38.692Z,10.95
2018-02-06T04:44:12.553Z,11.07
2018-02-06T04:44:46.409Z,10.75
2018-02-06T04:45:20.357Z,10.88
2018-02-06T04:45:54.228Z,10.73
2018-02-06T04:46:28.142Z,11.02
2018-02-06T04:47:02.064Z,11.75
2018-02-06T04:47:35.937Z,10.13
2018-02-06T04:48:09.807Z,10.27
2018-02-06T04:48:43.675Z,11.25
2018-02-06T04:49:17.538Z,11.45
2018-02-06T04:49:51.416Z,10.40
2018-02-06T04:50:25.280Z,10.77
2018-02-06T04:50:59.142Z,11.10
2018-02-06T04:51:32.995Z,11.10
2018-02-06T04:52:06.906Z,10.93
2018-02-06T04:52:40.985Z,10.05
2018-02-06T04:53:14.861Z,12.00
2018-02-06T04:53:48.803Z,12.32
2018-02-06T04:54:22.670Z,11.63
2018-02-06T04:54:56.672Z,10.45
2018-02-06T04:55:30.541Z,11.12
2018-02-06T04:56:04.573Z,11.25
2018-02-06T04:56:38.436Z,11.10
2018-02-06T04:57:12.477Z,11.90
2018-02-06T04:57:46.338Z,11.12
2018-02-06T04:58:20.357Z,10.60
2018-02-06T04:58:54.212Z,11.10
2018-02-06T04:59:28.073Z,10.48
2018-02-06T05:00:01.984Z,11.18
2018-02-06T05:00:35.871Z,11.23
2018-02-06T05:01:09.746Z,11.70
2018-02-06T05:01:43.738Z,12.00
2018-02-06T05:02:17.628Z,10.63
2018-02-06T05:02:51.864Z,12.60
2018-02-06T05:03:25.732Z,10.90
2018-02-06T05:03:59.592Z,12.07
2018-02-06T05:04:33.464Z,11.52
2018-02-06T05:05:07.509Z,11.88
2018-02-06T05:05:41.417Z,11.43
2018-02-06T05:06:15.505Z,11.57
2018-02-06T05:06:49.503Z,11.30
2018-02-06T05:07:23.389Z,11.15
2018-02-06T05:07:57.492Z,12.18
2018-02-06T05:08:31.489Z,11.18
2018-02-06T05:09:05.358Z,10.70
2018-02-06T05:09:39.464Z,12.15
2018-02-06T05:10:13.336Z,13.07
2018-02-06T05:10:47.392Z,11.25
2018-02-06T05:11:21.277Z,11.23
2018-02-06T05:11:55.148Z,11.10
2018-02-06T05:12:29.268Z,11.82
2018-02-06T05:13:03.244Z,10.98
2018-02-06T05:13:37.123Z,11.38
2018-02-06T05:14:11.011Z,11.68
2018-02-06T05:14:45.170Z,12.37
2018-02-06T05:15:19.053Z,12.23
2018-02-06T05:15:52.939Z,11.20
2018-02-06T05:16:26.802Z,10.77
2018-02-06T05:17:01.021Z,11.43
2018-02-06T05:17:34.904Z,10.32
2018-02-06T05:18:08.797Z,11.68
2018-02-06T05:18:42.659Z,12.20
2018-02-06T05:19:16.513Z,11.50
2018-02-06T05:19:50.376Z,11.05
2018-02-06T05:20:24.273Z,11.10
2018-02-06T05:20:58.220Z,12.45
2018-02-06T05:21:32.072Z,11.10
2018-02-06T05:22:05.928Z,11.52
2018-02-06T05:22:39.923Z,11.50
2018-02-06T05:23:13.780Z,12.20
2018-02-06T05:23:47.647Z,12.48
2018-02-06T05:24:21.558Z,11.70
2018-02-06T05:24:55.405Z,11.82
2018-02-06T05:25:29.280Z,10.77
2018-02-06T05:26:03.162Z,11.02
2018-02-06T05:26:37.076Z,10.43
2018-02-06T05:27:10.996Z,11.80
2018-02-06T05:27:44.873Z,10.60
2018-02-06T05:28:18.765Z,9.88
2018-02-06T05:28:52.624Z,10.52
2018-02-06T05:29:26.648Z,10.57
2018-02-06T05:30:00.563Z,11.57
2018-02-06T05:30:34.429Z,11.27
2018-02-06T05:31:08.295Z,9.80
2018-02-06T05:31:42.149Z,10.57
2018-02-06T05:32:16.015Z,11.02
2018-02-06T05:32:49.872Z,10.48
2018-02-06T05:33:23.737Z,10.00
2018-02-06T05:33:57.590Z,10.82
2018-02-06T05:34:31.459Z,11.85
2018-02-06T05:35:05.350Z,9.65
2018-02-06T05:35:39.501Z,11.65
2018-02-06T05:36:13.412Z,10.75
2018-02-06T05:36:47.279Z,12.90
2018-02-06T05:37:21.136Z,10.90
2018-02-06T05:37:55.083Z,10.40
2018-02-06T05:38:28.952Z,10.63
2018-02-06T05:39:02.805Z,11.40
2018-02-06T05:39:36.672Z,10.98
2018-02-06T05:40:10.540Z,10.20
2018-02-06T05:40:44.564Z,10.20
2018-02-06T05:41:18.666Z,10.95
2018-02-06T05:41:52.751Z,9.98
2018-02-06T05:42:26.647Z,11.07
2018-02-06T05:43:00.677Z,10.77
2018-02-06T05:43:34.549Z,10.40
2018-02-06T05:44:08.434Z,10.43
2018-02-06T05:44:42.441Z,11.02
2018-02-06T05:45:16.295Z,10.40
2018-02-06T05:45:50.335Z,11.43
2018-02-06T05:46:24.342Z,10.60
2018-02-06T05:46:58.224Z,10.60
2018-02-06T05:47:32.084Z,10.57
2018-02-06T05:48:06.027Z,10.25
2018-02-06T05:48:39.897Z,10.27
2018-02-06T05:49:13.755Z,10.82
2018-02-06T05:49:48.007Z,10.50
2018-02-06T05:50:21.880Z,10.85
2018-02-06T05:50:55.795Z,9.93
2018-02-06T05:51:29.660Z,11.65
2018-02-06T05:52:03.521Z,10.57
2018-02-06T05:52:37.385Z,9.85
2018-02-06T05:53:11.269Z,11.07
2018-02-06T05:53:45.204Z,10.50
2018-02-06T05:54:19.293Z,10.32
2018-02-06T05:54:53.198Z,11.88
2018-02-06T05:55:27.055Z,11.18
2018-02-06T05:56:00.932Z,10.55
2018-02-06T05:56:35.050Z,11.10
2018-02-06T05:57:09.159Z,10.45
2018-02-06T05:57:43.041Z,11.10
2018-02-06T05:58:16.896Z,10.30
2018-02-06T05:58:50.757Z,12.60
2018-02-06T05:59:24.676Z,11.80
2018-02-06T05:59:58.623Z,11.25
2018-02-06T06:00:32.533Z,12.40
2018-02-06T06:01:06.409Z,10.73
2018-02-06T06:01:40.276Z,11.60
2018-02-06T06:02:14.141Z,11.70
2018-02-06T06:02:48.200Z,12.77
2018-02-06T06:03:22.213Z,11.00
2018-02-06T06:03:56.203Z,10.23
2018-02-06T06:04:30.090Z,12.00
2018-02-06T06:05:03.940Z,11.70
2018-02-06T06:05:37.813Z,10.93
2018-02-06T06:06:11.987Z,11.63
2018-02-06T06:06:45.982Z,12.50
2018-02-06T06:07:19.984Z,12.32
2018-02-06T06:07:53.861Z,12.35
2018-02-06T06:08:27.902Z,12.77
2018-02-06T06:09:01.892Z,13.75
2018-02-06T06:09:35.747Z,14.45
2018-02-06T06:10:09.609Z,13.85
2018-02-06T06:10:43.479Z,13.10
2018-02-06T06:11:17.343Z,12.48
2018-02-06T06:11:51.458Z,11.52
2018-02-06T06:12:25.350Z,12.75
2018-02-06T06:12:59.207Z,10.85
2018-02-06T06:13:33.260Z,12.00
2018-02-06T06:14:07.116Z,11.32
2018-02-06T06:14:40.994Z,11.48
2018-02-06T06:15:14.849Z,11.15
2018-02-06T06:15:48.710Z,8.70
2018-02-06T06:16:22.571Z,10.32
2018-02-06T06:16:56.624Z,10.77
2018-02-06T06:17:30.492Z,10.00
2018-02-06T06:18:04.356Z,10.40
2018-02-06T06:18:38.233Z,11.25
2018-02-06T06:19:12.082Z,10.90
2018-02-06T06:19:46.107Z,11.93
2018-02-06T06:20:19.998Z,11.70
2018-02-06T06:20:54.551Z,11.35
2018-02-06T06:21:28.956Z,11.60
2018-02-06T06:22:03.188Z,10.82
2018-02-06T06:22:37.052Z,10.60
2018-02-06T06:23:11.099Z,9.30
2018-02-06T06:23:45.000Z,9.23
2018-02-06T06:24:19.059Z,9.40
2018-02-06T06:24:52.920Z,8.35
2018-02-06T06:25:27.119Z,8.90
2018-02-06T06:26:01.406Z,8.50
2018-02-06T06:26:35.262Z,9.55
2018-02-06T06:27:09.119Z,9.90
2018-02-06T06:27:43.066Z,9.98
2018-02-06T06:28:16.973Z,8.80
2018-02-06T06:28:51.231Z,10.25
2018-02-06T06:29:25.216Z,8.50
2018-02-06T06:29:59.118Z,9.27
2018-02-06T06:30:33.052Z,9.93
2018-02-06T06:31:06.989Z,9.20
2018-02-06T06:31:41.544Z,9.88
2018-02-06T06:32:15.568Z,9.65
2018-02-06T06:32:49.426Z,9.55
2018-02-06T06:33:23.336Z,9.25
2018-02-06T06:33:57.220Z,9.25
2018-02-06T06:34:31.422Z,9.00
2018-02-06T06:35:05.455Z,8.75
2018-02-06T06:35:39.321Z,8.65
2018-02-06T06:36:13.500Z,9.25
2018-02-06T06:36:47.457Z,9.57
2018-02-06T06:37:21.334Z,8.82
2018-02-06T06:37:55.262Z,8.38
2018-02-06T06:38:29.138Z,9.00
2018-02-06T06:39:03.019Z,8.77
2018-02-06T06:39:36.883Z,8.43
2018-02-06T06:40:10.726Z,9.88
2018-02-06T06:40:44.589Z,9.80
2018-02-06T06:41:18.610Z,10.48
2018-02-06T06:41:52.473Z,8.43
2018-02-06T06:42:26.524Z,10.15
2018-02-06T06:43:00.391Z,9.82
2018-02-06T06:43:34.654Z,23.48
2018-02-06T06:44:08.602Z,56.42
2018-02-06T06:44:42.518Z,37.78
2018-02-06T06:45:16.397Z,34.08
2018-02-06T06:45:50.284Z,18.90
2018-02-06T06:46:24.137Z,14.60
2018-02-06T06:46:58.042Z,14.02
2018-02-06T06:47:31.909Z,12.20
2018-02-06T06:48:05.894Z,11.02
2018-02-06T06:48:39.779Z,10.38
2018-02-06T06:49:13.806Z,9.77
2018-02-06T06:49:47.709Z,9.10
2018-02-06T06:50:21.673Z,8.20
2018-02-06T06:50:55.589Z,7.90
2018-02-06T06:51:29.448Z,7.93
2018-02-06T06:52:03.320Z,8.57
2018-02-06T06:52:37.208Z,8.25
2018-02-06T06:53:11.065Z,8.30
2018-02-06T06:53:44.957Z,8.35
2018-02-06T06:54:18.861Z,8.65
2018-02-06T06:54:52.729Z,8.27
2018-02-06T06:55:26.581Z,8.43
2018-02-06T06:56:00.500Z,8.63
2018-02-06T06:56:34.377Z,7.90
2018-02-06T06:57:08.262Z,8.50
2018-02-06T06:57:42.112Z,8.68
2018-02-06T06:58:16.013Z,8.70
2018-02-06T06:58:49.904Z,9.85
2018-02-06T06:59:25.291Z,12.90
2018-02-06T06:59:59.463Z,11.18
2018-02-06T07:00:33.330Z,11.48
2018-02-06T07:01:07.205Z,9.75
2018-02-06T07:01:41.206Z,8.77
2018-02-06T07:02:16.821Z,8.75
2018-02-06T07:02:50.830Z,8.80
2018-02-06T07:03:24.700Z,8.38
2018-02-06T07:03:58.682Z,8.98
2018-02-06T07:04:32.564Z,11.88
2018-02-06T07:05:06.434Z,10.57
2018-02-06T07:05:40.326Z,11.75
2018-02-06T07:06:14.378Z,10.25
2018-02-06T07:06:48.259Z,9.85
2018-02-06T07:07:22.210Z,10.18
2018-02-06T07:07:56.109Z,10.63
2018-02-06T07:08:29.975Z,10.75
2018-02-06T07:09:03.846Z,10.20
2018-02-06T07:09:37.741Z,11.55
2018-02-06T07:10:11.603Z,11.43
2018-02-06T07:10:45.576Z,10.77
2018-02-06T07:11:19.416Z,10.95
2018-02-06T07:11:53.361Z,11.15
2018-02-06T07:12:27.858Z,10.55
2018-02-06T07:13:01.726Z,10.30
2018-02-06T07:13:36.892Z,12.15
2018-02-06T07:14:10.841Z,11.32
2018-02-06T07:14:44.741Z,11.98
2018-02-06T07:15:18.887Z,13.52
2018-02-06T07:15:52.886Z,12.30
2018-02-06T07:16:26.743Z,12.45
2018-02-06T07:17:00.637Z,11.27
2018-02-06T07:17:34.518Z,12.55
2018-02-06T07:18:08.401Z,11.88
2018-02-06T07:18:42.321Z,12.27
2018-02-06T07:19:16.278Z,11.43
2018-02-06T07:19:50.266Z,11.95
2018-02-06T07:20:26.063Z,11.65
2018-02-06T07:20:59.931Z,12.50
2018-02-06T07:21:33.821Z,11.50
2018-02-06T07:22:07.689Z,11.45
2018-02-06T07:22:41.858Z,12.40
2018-02-06T07:23:16.089Z,11.23
2018-02-06T07:23:49.987Z,10.77
2018-02-06T07:24:23.985Z,10.18
2018-02-06T07:24:57.862Z,10.45
2018-02-06T07:25:32.501Z,11.30
2018-02-06T07:26:06.520Z,12.05
2018-02-06T07:26:40.386Z,12.25
2018-02-06T07:27:14.262Z,10.00
2018-02-06T07:27:48.129Z,10.98
2018-02-06T07:28:21.996Z,9.93
2018-02-06T07:28:55.985Z,11.82
2018-02-06T07:29:29.842Z,10.57
2018-02-06T07:30:03.743Z,9.48
2018-02-06T07:30:37.652Z,9.65
2018-02-06T07:31:11.508Z,11.30
2018-02-06T07:31:45.641Z,10.88
2018-02-06T07:32:19.525Z,9.93
2018-02-06T07:32:53.375Z,9.60
2018-02-06T07:33:27.243Z,10.13
2018-02-06T07:34:01.097Z,10.10
2018-02-06T07:34:34.950Z,9.05
2018-02-06T07:35:09.131Z,10.13
2018-02-06T07:35:42.992Z,10.63
2018-02-06T07:36:16.882Z,10.85
2018-02-06T07:36:50.817Z,10.27
2018-02-06T07:37:24.675Z,10.18
2018-02-06T07:37:58.550Z,10.35
2018-02-06T07:38:32.408Z,11.88
2018-02-06T07:39:06.502Z,10.50
2018-02-06T07:39:40.697Z,9.85
2018-02-06T07:40:14.576Z,10.80
2018-02-06T07:40:48.497Z,9.25
2018-02-06T07:41:22.693Z,10.13
2018-02-06T07:41:56.553Z,10.65
2018-02-06T07:42:30.426Z,10.38
2018-02-06T07:43:04.565Z,10.35
2018-02-06T07:43:38.577Z,10.40
2018-02-06T07:44:12.445Z,9.68
2018-02-06T07:44:46.384Z,10.48
2018-02-06T07:45:20.510Z,9.50
2018-02-06T07:45:54.457Z,9.52
2018-02-06T07:46:28.317Z,11.40
2018-02-06T07:47:02.172Z,11.12
2018-02-06T07:47:36.269Z,11.68
2018-02-06T07:48:10.195Z,10.73
2018-02-06T07:48:44.119Z,10.68
2018-02-06T07:49:18.036Z,10.10
2018-02-06T07:49:52.061Z,9.63
2018-02-06T07:50:25.948Z,10.77
2018-02-06T07:50:59.845Z,10.60
2018-02-06T07:51:33.878Z,10.43
2018-02-06T07:52:07.774Z,10.70
2018-02-06T07:52:41.647Z,11.45
2018-02-06T07:53:15.572Z,10.75
2018-02-06T07:53:49.598Z,10.50
2018-02-06T07:54:23.453Z,11.98
2018-02-06T07:54:57.350Z,11.02
2018-02-06T07:55:31.336Z,10.75
2018-02-06T07:56:05.325Z,10.15
2018-02-06T07:56:39.253Z,11.65
2018-02-06T07:57:13.177Z,10.93
2018-02-06T07:57:47.084Z,10.20
2018-02-06T07:58:21.089Z,10.48
2018-02-06T07:58:54.965Z,11.52
2018-02-06T07:59:28.809Z,11.48
2018-02-06T08:00:02.733Z,10.05
2018-02-06T08:00:36.893Z,9.75
2018-02-06T08:01:10.763Z,10.88
2018-02-06T08:01:44.648Z,9.68
2018-02-06T08:02:18.582Z,10.32
2018-02-06T08:02:52.455Z,9.93
2018-02-06T08:03:26.332Z,10.70
2018-02-06T08:04:00.343Z,9.50
2018-02-06T08:04:34.237Z,11.20
2018-02-06T08:05:08.109Z,10.52
2018-02-06T08:05:42.049Z,10.93
2018-02-06T08:06:16.217Z,10.45
2018-02-06T08:06:50.126Z,10.05
2018-02-06T08:07:24.013Z,10.40
2018-02-06T08:07:57.906Z,10.43
2018-02-06T08:08:31.919Z,10.52
2018-02-06T08:09:05.823Z,10.30
2018-02-06T08:09:39.701Z,10.20
2018-02-06T08:10:13.690Z,10.05
2018-02-06T08:10:47.581Z,9.68
2018-02-06T08:11:21.482Z,9.90
2018-02-06T08:11:55.481Z,9.60
2018-02-06T08:12:29.328Z,9.82
2018-02-06T08:13:03.215Z,9.75
2018-02-06T08:13:37.371Z,9.82
2018-02-06T08:14:11.220Z,9.07
2018-02-06T08:14:45.264Z,9.45
2018-02-06T08:15:19.113Z,9.95
2018-02-06T08:15:52.986Z,9.63
2018-02-06T08:16:26.848Z,8.82
2018-02-06T08:17:00.714Z,9.80
2018-02-06T08:17:34.736Z,9.82
2018-02-06T08:18:08.607Z,9.40
2018-02-06T08:18:42.642Z,9.20
2018-02-06T08:19:16.500Z,10.02
2018-02-06T08:19:50.366Z,10.68
2018-02-06T08:20:24.420Z,8.65
2018-02-06T08:20:58.799Z,10.38
2018-02-06T08:21:32.931Z,13.38
2018-02-06T08:22:06.796Z,12.20
2018-02-06T08:22:40.731Z,13.95
2018-02-06T08:23:14.707Z,10.48
2018-02-06T08:23:48.671Z,10.65
2018-02-06T08:24:22.634Z,9.23
2018-02-06T08:24:56.808Z,11.93
2018-02-06T08:25:30.680Z,11.60
2018-02-06T08:26:04.587Z,10.00
2018-02-06T08:26:38.462Z,9.38
2018-02-06T08:27:12.309Z,10.38
2018-02-06T08:27:46.352Z,10.70
2018-02-06T08:28:20.225Z,9.05
2018-02-06T08:28:54.142Z,9.65
2018-02-06T08:29:28.009Z,9.85
2018-02-06T08:30:01.941Z,9.43
2018-02-06T08:30:36.093Z,9.77
2018-02-06T08:31:09.986Z,9.73
2018-02-06T08:31:43.917Z,9.25
2018-02-06T08:32:18.081Z,8.98
2018-02-06T08:32:51.984Z,8.93
2018-02-06T08:33:25.870Z,9.77
2018-02-06T08:33:59.760Z,9.60
2018-02-06T08:34:33.654Z,9.48
2018-02-06T08:35:07.516Z,10.43
2018-02-06T08:35:41.566Z,9.48
2018-02-06T08:36:15.447Z,10.30
2018-02-06T08:36:49.304Z,9.57
2018-02-06T08:37:23.185Z,10.02
2018-02-06T08:37:57.065Z,10.27
2018-02-06T08:38:30.936Z,9.82
2018-02-06T08:39:04.819Z,10.70
2018-02-06T08:39:38.736Z,10.05
2018-02-06T08:40:12.613Z,10.45
2018-02-06T08:40:46.501Z,10.48
2018-02-06T08:41:20.397Z,10.80
2018-02-06T08:41:54.260Z,11.15
2018-02-06T08:42:28.135Z,10.85
2018-02-06T08:43:02.078Z,10.30
2018-02-06T08:43:35.959Z,11.30
2018-02-06T08:44:09.847Z,10.52
2018-02-06T08:44:43.713Z,10.45
2018-02-06T08:45:17.568Z,10.45
2018-02-06T08:45:51.449Z,10.75
2018-02-06T08:46:25.365Z,10.57
2018-02-06T08:46:59.226Z,10.85
2018-02-06T08:47:33.122Z,11.43
2018-02-06T08:48:07.141Z,10.38
2018-02-06T08:48:41.068Z,12.68
2018-02-06T08:49:15.127Z,10.48
2018-02-06T08:49:49.040Z,10.88
2018-02-06T08:50:23.009Z,11.75
2018-02-06T08:50:57.132Z,12.48
2018-02-06T08:51:31.078Z,11.45
2018-02-06T08:52:05.018Z,10.93
2018-02-06T08:52:38.977Z,11.35
2018-02-06T08:53:12.855Z,11.15
2018-02-06T08:53:46.997Z,11.18
2018-02-06T08:54:21.071Z,11.35
2018-02-06T08:54:54.997Z,11.10
2018-02-06T08:55:28.922Z,10.98
2018-02-06T08:56:02.927Z,11.35
2018-02-06T08:56:37.091Z,10.73
2018-02-06T08:57:11.024Z,12.43
2018-02-06T08:57:45.078Z,11.73
2018-02-06T08:58:19.393Z,12.00
2018-02-06T08:58:53.290Z,12.25
2018-02-06T08:59:27.333Z,10.80
2018-02-06T09:00:02.238Z,11.80
2018-02-06T09:00:36.221Z,11.70
2018-02-06T09:01:10.497Z,11.27
2018-02-06T09:01:44.457Z,11.15
2018-02-06T09:02:18.328Z,12.00
2018-02-06T09:02:52.344Z,11.50
2018-02-06T09:03:27.250Z,10.40
2018-02-06T09:04:01.197Z,11.93
2018-02-06T09:04:35.078Z,10.55
2018-02-06T09:05:08.979Z,10.63
2018-02-06T09:05:42.919Z,11.25
2018-02-06T09:06:16.842Z,11.88
2018-02-06T09:06:50.725Z,13.50
2018-02-06T09:07:24.616Z,10.55
2018-02-06T09:07:59.512Z,10.18
2018-02-06T09:08:33.543Z,12.07
2018-02-06T09:09:08.431Z,10.75
2018-02-06T09:09:42.545Z,10.93
2018-02-06T09:10:16.528Z,11.65
2018-02-06T09:10:50.499Z,11.20
2018-02-06T09:11:24.380Z,10.15
2018-02-06T09:11:58.274Z,12.20
2018-02-06T09:12:32.853Z,10.27
2018-02-06T09:13:06.838Z,10.52
2018-02-06T09:13:41.689Z,10.73
2018-02-06T09:14:16.281Z,10.63
2018-02-06T09:14:50.257Z,10.15
2018-02-06T09:15:24.121Z,10.10
2018-02-06T09:15:57.984Z,9.90